Terminal Aerodrome Forecast
Issued by NWS Corpus Christi, TX

Home | Current Version | Previous Version | Text Only | Print | Product List | Glossary On
Versions: 1 2 3 4 5 6 7 8 9 10 11 12 13 14 15 16 17 18 19
069
FTUS44 KCRP 301741
TAFVCT
TAF
KVCT 301741Z 3018/0118 03010KT 6SM HZ BKN025 BKN035
     FM302100 12010KT 6SM HZ VCTS BKN035CB
     FM010000 13009KT P6SM SCT250
     FM010600 08005KT 5SM BR BKN015
      TEMPO 0109/0113 2SM BR OVC004
     FM011600 11008KT 6SM HZ BKN015=

USA.gov is the U.S. government's official web portal to all federal, state and local government web resources and services.